• Join FlightAware (Why Join?)
  • Login
  • US Flag 
06:33AM EDT


 

Airport Tracker/Info


-or-


 

Live Flight TrackerFlight Track Log ✈ N53NW ✈ 07-Feb-2014 ✈ KNEW - KHOU

Flight Track Log - Related Links

Times and Time Zones

All times are in EST time to prevent confusion due to time zone crossing. See the N53NW flight status page for this flight to view local times or setup timezone preferences in your user account.

Time Position Orientation Groundspeed Altitude Reporting Facility
EST Latitude Longitude Course Direction KTS MPH feet Rate Location/Type
11:35AM 30.0589 -90.0319 253° West 194 223 800  Level Houston Center
11:36AM 30.0958 -90.0347 356° North 225 259 2,100 2,220 Climbing Houston Center
11:36AM 30.1097 -90.0539 310° West 245 282 2,900 3,360 Climbing Houston Center
11:37AM 30.0939 -90.1011 249° West 244 281 5,700 4,380 Climbing Houston Center
11:37AM 30.0828 -90.1200 236° Southwest 238 274 7,400 4,560 Climbing Houston Center
11:38AM 30.0603 -90.1614 238° Southwest 228 262 10,300 3,840 Climbing Houston Center
11:39AM 30.0172 -90.2256 232° Southwest 213 245 14,600 3,480 Climbing Houston Center
11:40AM 29.9742 -90.2764 226° Southwest 219 252 17,700 2,700 Climbing Houston Center
11:41AM 29.8685 -90.5212 253° West  Level FlightAware Approximate
11:41AM 29.9283 -90.3286 225° Southwest 230 265 20,300  Level Houston Center
11:42AM 29.8844 -90.3831 227° Southwest 232 267 23,000 2,700 Climbing Houston Center
11:43AM 29.8381 -90.4411 227° Southwest 243 280 25,900 1,380 Climbing Houston Center
11:44AM 29.8128 -90.5364 253° West 273 314 26,000  Climbing Houston Center
11:45AM 29.7956 -90.6333 258° West 305 351 26,000  Level Houston Center
11:46AM 29.7781 -90.7225 257° West 290 334 26,000  Level Houston Center
11:47AM 29.7603 -90.8067 256° West 275 316 26,000  Level Houston Center
11:48AM 29.7433 -90.8950 258° West 282 325 26,000  Level Houston Center
11:49AM 29.7261 -90.9822 257° West 280 322 26,000  Level Houston Center
11:50AM 29.7050 -91.0875 257° West 282 325 26,000  Level Houston Center
11:51AM 29.6869 -91.1747 257° West 282 325 26,000  Level Houston Center
11:52AM 29.6706 -91.2628 258° West 283 326 26,000  Level Houston Center
11:53AM 29.6511 -91.3503 256° West 284 327 26,000  Level Houston Center
11:54AM 29.6342 -91.4378 257° West 282 325 26,000  Level Houston Center
11:55AM 29.6175 -91.5211 257° West 272 313 26,000  Level Houston Center
11:57AM 29.5958 -91.6236 256° West 274 315 26,000  Level Houston Center
11:58AM 29.5781 -91.7089 257° West 274 315 26,000  Level Houston Center
11:59AM 29.5619 -91.7914 257° West 272 313 26,000  Level Houston Center
12:00PM 29.5436 -91.8778 256° West 276 318 26,000  Level Houston Center
12:01PM 29.5261 -91.9636 257° West 278 320 26,000  Level Houston Center
12:02PM 29.5039 -92.0683 256° West 282 325 26,000  Level Houston Center
12:03PM 29.4864 -92.1558 257° West 281 323 26,000  Level Houston Center
12:04PM 29.4675 -92.2425 256° West 281 323 26,000  Level Houston Center
12:05PM 29.4494 -92.3297 257° West 282 325 26,000  Level Houston Center
12:06PM 29.4306 -92.4158 256° West 279 321 26,000  Level Houston Center
12:07PM 29.4133 -92.5022 257° West 279 321 26,000  Level Houston Center
12:08PM 29.3911 -92.6064 256° West 280 322 26,000  Level Houston Center
12:09PM 29.3722 -92.6936 256° West 281 323 26,000  Level Houston Center
12:10PM 29.3536 -92.7808 256° West 282 325 26,000  Level Houston Center
12:11PM 29.3333 -92.8703 255° West 288 331 26,000  Level Houston Center
12:12PM 29.3158 -92.9578 257° West 284 327 26,000  Level Houston Center
12:13PM 29.2928 -93.0617 256° West 281 323 26,000 -420 Level Houston Center
12:14PM 29.2733 -93.1503 256° West 286 329 25,200 -900 Descending Houston Center
12:15PM 29.2572 -93.2353 258° West 277 319 24,200 -600 Descending Houston Center
12:16PM 29.2578 -93.3208 270° West 269 310 24,000 -120 Descending Houston Center
12:17PM 29.2586 -93.4097 271° West 275 316 24,000  Level Houston Center
12:18PM 29.2597 -93.5006 271° West 281 323 24,000  Level Houston Center
12:19PM 29.2611 -93.6056 271° West 277 319 24,000  Level Houston Center
12:20PM 29.2628 -93.6953 271° West 280 322 24,000 -600 Level Houston Center
12:21PM 29.2636 -93.7858 271° West 283 326 22,800 -1,260 Descending Houston Center
12:22PM 29.2639 -93.8756 270° West 282 325 21,400 -1,380 Descending Houston Center
12:23PM 29.2647 -93.9625 271° West 277 319 20,000 -1,560 Descending Houston Center
12:24PM 29.2631 -94.0111 268° West 271 312 19,200 -1,320 Descending Houston Center
12:25PM 29.2653 -94.0478 274° West 271 312 18,600 -1,260 Descending Houston Center
12:25PM 29.2644 -94.1069 269° West 267 307 17,800 -780 Descending Houston Center
12:26PM 29.2653 -94.1317 272° West 267 307 17,800 -840 Level Houston Center
12:26PM 29.2653 -94.1786 270° West 261 300 17,000 -1,620 Descending Houston Center
12:27PM 29.2678 -94.2306 273° West 262 302 16,200 -1,440 Descending Houston Center
12:27PM 29.2664 -94.2719 268° West 260 299 15,500 -1,200 Descending Houston Center
12:28PM 29.2672 -94.3122 271° West 259 298 14,900 -1,260 Descending Houston Center
12:28PM 29.2647 -94.3608 267° West 256 295 14,100 -1,320 Descending Houston Center
12:29PM 29.2678 -94.3936 276° West 257 296 13,600 -1,260 Descending Houston Center
12:29PM 29.2658 -94.4350 267° West 256 295 13,000 -600 Descending Houston Center
12:30PM 29.2681 -94.4742 274° West 255 293 13,000  Level Houston Center
12:30PM 29.2875 -94.5258 293° West 270 311 13,000 -300 Level Houston Center
12:31PM 29.3014 -94.5506 303° West 267 307 12,700 -1,200 Descending Houston Center
12:31PM 29.3244 -94.6025 297° West 267 307 11,800 -1,440 Descending Houston Center
12:32PM 29.3431 -94.6397 300° West 267 307 11,200 -1,140 Descending Houston Center
12:32PM 29.3586 -94.6750 297° West 254 292 10,600 -1,140 Descending Houston Center
12:33PM 29.3781 -94.7092 303° West 256 295 10,100 -600 Descending Houston Center
12:33PM 29.3953 -94.7472 297° West 253 291 10,000 -120 Descending Houston Center
12:34PM 29.4122 -94.7783 302° West 253 291 10,000 -600 Level Houston Center
12:34PM 29.4289 -94.8150 298° West 249 287 9,400 -1,320 Descending Houston Center
12:35PM 29.4458 -94.8475 301° West 249 287 8,600 -1,320 Descending Houston Center
12:35PM 29.4633 -94.8875 297° West 248 285 8,000 -600 Descending Houston Center
12:36PM 29.4792 -94.9158 303° West 247 284 8,000 -360 Level Houston Center
12:36PM 29.4944 -94.9508 297° West 244 281 7,700 -1,140 Descending Houston Center
12:37PM 29.5128 -94.9853 301° West 248 285 6,900 -1,560 Descending Houston Center
12:37PM 29.5283 -95.0211 297° West 257 296 6,100 -900 Descending Houston Center
12:38PM 29.5550 -95.0717 301° West 256 295 6,000 -120 Descending Houston Center
12:38PM 29.5647 -95.0933 297° West 248 285 6,000  Level Houston Center
12:39PM 29.5881 -95.1383 301° West 247 284 6,000  Level Houston Center
12:39PM 29.5919 -95.1597 282° West 233 268 6,000  Level Houston Center
12:40PM 29.5767 -95.2067 249° West 228 262 6,000  Level Houston Center
12:40PM 29.5667 -95.2278 241° Southwest 215 247 6,000  Level Houston Center
12:41PM 29.5414 -95.2611 229° Southwest 216 249 6,000  Level Houston Center
12:41PM 29.5269 -95.2758 222° Southwest 208 239 6,000 -1,140 Level Houston Center
12:42PM 29.4994 -95.3064 224° Southwest 209 241 4,900 -1,740 Descending Houston Center
12:42PM 29.4833 -95.3242 224° Southwest 211 243 4,300 -780 Descending Houston Center
12:43PM 29.4594 -95.3519 225° Southwest 206 237 4,100 -300 Descending Houston Center
12:43PM 29.4450 -95.3650 218° Southwest 168 193 4,000 -120 Descending Houston Center
12:44PM 29.4242 -95.3892 225° Southwest 183 211 4,000 -300 Level Houston Center
12:44PM 29.4181 -95.4136 254° West 202 232 3,700 -900 Descending Houston Center
12:45PM 29.4436 -95.4542 306° West 203 234 3,100 -600 Descending Houston Center
12:45PM 29.4500 -95.4650 304° West 193 222 3,100  Level Houston Center
12:46PM 29.4875 -95.4561 12° North 192 221 3,100  Level Houston Center
12:46PM 29.4908 -95.4531 39° Northeast 183 211 3,100 -420 Level Houston Center
12:47PM 29.5206 -95.4183 45° Northeast 173 199 2,700 -540 Descending Houston Center
12:47PM 29.5250 -95.4128 47° Northeast 162 186 2,600 -660 Descending Houston Center
12:48PM 29.5497 -95.3839 45° Northeast 162 186 2,000 -480 Descending Houston Center
12:48PM 29.5536 -95.3806 37° Northeast 134 154 2,100 -420 Climbing Houston Center
12:49PM 29.5775 -95.3536 44° Northeast 148 170 1,600 -540 Descending Houston Center
12:49PM 29.5819 -95.3483 46° Northeast 141 162 1,600 -420 Level Houston Center
12:50PM 29.6028 -95.3253 44° Northeast 137 158 1,200 -600 Descending Houston Center
12:51PM 29.6269 -95.2986 44° Northeast 112 129 500 -720 Descending Houston Center
12:52PM 29.6297 -95.2969 28° Northeast 112 129 400 -420 Descending Houston Center
12:52PM 29.6436 -95.2806 46° Northeast 107 123 100 -360 Descending Houston Center